Time;durP1;ratioP1;P1;durP2;ratioP2;P2;SDS_P1;SDS_P2;PMS_P1;PMS_P2;Temp;Humidity;BMP_temperature;BMP_pressure;BME280_temperature;BME280_humidity;BME280_pressure;Samples;Min_cycle;Max_cycle;Signal;HPM_P1;HPM_P2
2023/03/10 00:02:22;;;;;;;;;5.00;2.00;;;;;12.99;72.51;98594.72;5012266;28;45124;-62
2023/03/10 00:04:54;;;;;;;;;4.67;3.00;;;;;13.00;72.57;98599.16;5011709;28;45154;-64
2023/03/10 00:07:19;;;;;;;;;5.67;1.67;;;;;12.93;72.85;98592.13;4996069;28;47255;-63
2023/03/10 00:09:45;;;;;;;;;8.33;3.00;;;;;12.99;71.66;98610.78;5010494;28;45507;-63
2023/03/10 00:12:11;;;;;;;;;4.67;3.00;;;;;13.00;71.54;98596.50;5008159;28;44924;-63
2023/03/10 00:14:36;;;;;;;;;9.00;2.67;;;;;13.01;71.56;98598.25;5011120;28;45216;-63
2023/03/10 00:17:02;;;;;;;;;6.33;2.00;;;;;13.03;71.31;98590.16;5007349;28;45968;-63
2023/03/10 00:19:28;;;;;;;;;5.33;2.00;;;;;12.83;70.10;98561.06;5007690;28;45268;-62
2023/03/10 00:21:54;;;;;;;;;6.00;3.00;;;;;13.04;70.15;98584.78;5007328;28;45360;-62
2023/03/10 00:24:19;;;;;;;;;3.00;3.00;;;;;12.98;69.25;98584.00;5010980;28;45125;-64
2023/03/10 00:26:45;;;;;;;;;5.67;3.00;;;;;12.94;69.82;98575.16;5005010;28;45631;-62
2023/03/10 00:29:11;;;;;;;;;5.67;3.00;;;;;13.01;69.02;98568.75;4988810;28;45233;-63
2023/03/10 00:31:37;;;;;;;;;10.00;5.00;;;;;12.91;68.42;98553.75;5009668;28;45006;-63
2023/03/10 00:34:03;;;;;;;;;9.00;5.33;;;;;13.06;68.43;98568.66;5011838;28;45107;-63
2023/03/10 00:36:30;;;;;;;;;6.67;5.00;;;;;13.06;68.16;98566.00;5009107;28;46250;-62
2023/03/10 00:38:59;;;;;;;;;10.33;5.33;;;;;13.09;68.11;98563.25;5010422;28;45199;-62
2023/03/10 00:41:29;;;;;;;;;7.00;6.00;;;;;13.08;67.72;98554.34;5009783;28;44987;-63
2023/03/10 00:43:56;;;;;;;;;5.67;3.00;;;;;13.08;68.22;98537.34;5009695;28;45113;-63
2023/03/10 00:46:22;;;;;;;;;2.33;2.33;;;;;13.16;67.70;98535.41;5008617;28;45523;-62
2023/03/10 00:48:49;;;;;;;;;9.33;5.67;;;;;13.17;67.70;98526.44;5008766;28;45041;-62
2023/03/10 00:51:15;;;;;;;;;5.33;2.67;;;;;13.15;67.61;98525.63;5011779;28;45132;-63
2023/03/10 00:53:41;;;;;;;;;8.00;5.00;;;;;13.19;67.88;98538.03;5011992;28;45127;-63
2023/03/10 00:56:09;;;;;;;;;6.00;4.00;;;;;13.19;67.67;98556.78;5006403;28;45246;-63
2023/03/10 00:58:34;;;;;;;;;3.00;2.00;;;;;13.13;68.41;98551.53;5009794;28;45551;-64
2023/03/10 01:01:02;;;;;;;;;3.00;2.00;;;;;13.04;67.80;98560.66;5010316;28;45193;-64
2023/03/10 01:03:28;;;;;;;;;8.33;2.33;;;;;12.83;67.64;98518.19;5012480;28;45195;-64
2023/03/10 01:05:55;;;;;;;;;2.00;2.00;;;;;12.91;68.03;98556.44;5012832;28;45260;-63
2023/03/10 01:08:21;;;;;;;;;6.67;3.67;;;;;12.89;67.80;98551.09;4997780;28;45249;-62
2023/03/10 01:10:48;;;;;;;;;4.67;1.00;;;;;12.84;67.41;98557.47;5009864;28;45220;-64
2023/03/10 01:13:15;;;;;;;;;3.00;3.00;;;;;12.80;68.30;98548.63;5012067;28;45266;-63
2023/03/10 01:15:43;;;;;;;;;5.33;4.33;;;;;12.73;66.71;98549.63;5012983;28;45782;-63
2023/03/10 01:18:09;;;;;;;;;6.33;3.00;;;;;12.71;67.65;98549.63;4998802;28;45279;-64
2023/03/10 01:20:34;;;;;;;;;1.00;1.00;;;;;12.72;67.68;98526.44;5014915;28;45111;-63
2023/03/10 01:23:00;;;;;;;;;3.33;2.00;;;;;12.72;67.36;98527.31;5015067;28;45118;-62
2023/03/10 01:25:27;;;;;;;;;4.33;2.33;;;;;12.67;67.08;98493.47;5013903;28;46401;-62
2023/03/10 01:27:52;;;;;;;;;3.00;1.67;;;;;12.70;67.00;98512.16;5014901;28;45095;-61
2023/03/10 01:30:18;;;;;;;;;3.33;1.33;;;;;12.64;67.32;98521.19;5006958;28;45216;-63
2023/03/10 01:32:44;;;;;;;;;3.00;0.33;;;;;12.57;66.45;98514.16;5013240;28;44980;-62
2023/03/10 01:35:10;;;;;;;;;4.00;1.00;;;;;12.54;67.20;98517.81;5013929;28;45742;-63
2023/03/10 01:37:35;;;;;;;;;6.33;2.33;;;;;12.59;67.12;98525.75;5001158;28;45132;-62
2023/03/10 01:40:03;;;;;;;;;3.00;0.33;;;;;12.55;66.00;98534.75;5014319;28;45224;-65
2023/03/10 01:42:30;;;;;;;;;2.33;2.00;;;;;12.48;66.85;98528.59;5012917;28;45062;-63
2023/03/10 01:45:13;;;;;;;;;2.00;2.00;;;;;12.44;65.68;98521.56;5011413;28;45853;-63
2023/03/10 01:47:40;;;;;;;;;0.67;0.00;;;;;12.40;66.56;98522.50;5003678;28;45057;-62
2023/03/10 01:50:12;;;;;;;;;1.67;0.67;;;;;12.38;65.30;98515.41;5013238;28;45039;-62
2023/03/10 01:52:39;;;;;;;;;3.00;3.00;;;;;12.16;65.71;98491.69;5012382;28;45206;-62
2023/03/10 01:55:10;;;;;;;;;5.00;3.00;;;;;12.32;64.96;98508.34;5013438;28;45258;-63
2023/03/10 01:57:43;;;;;;;;;1.00;1.00;;;;;12.35;64.93;98516.34;5012923;28;44957;-63
2023/03/10 02:00:12;;;;;;;;;5.00;2.00;;;;;12.31;65.02;98506.59;5011763;28;45423;-63
2023/03/10 02:02:48;;;;;;;;;4.67;1.33;;;;;12.32;65.95;98498.56;5014550;28;45370;-63
2023/03/10 02:05:14;;;;;;;;;1.00;0.33;;;;;12.31;64.81;98494.09;5013534;28;45271;-63
2023/03/10 02:07:42;;;;;;;;;5.00;2.00;;;;;12.34;65.45;98491.38;5008327;28;45674;-64
2023/03/10 02:10:10;;;;;;;;;2.67;0.67;;;;;12.38;64.77;98492.19;5015047;28;45161;-66
2023/03/10 02:12:35;;;;;;;;;3.00;1.00;;;;;12.40;64.38;98481.47;5013755;28;44948;-62
2023/03/10 02:15:01;;;;;;;;;3.33;1.00;;;;;12.28;65.60;98467.38;5013145;28;45334;-62
2023/03/10 02:17:27;;;;;;;;;5.33;2.00;;;;;12.40;64.88;98466.25;5010681;28;45223;-62
2023/03/10 02:20:19;;;;;;;;;3.00;2.00;;;;;12.40;64.56;98474.31;5010901;28;45375;-64
2023/03/10 02:22:45;;;;;;;;;2.67;2.67;;;;;12.34;64.54;98463.69;5006987;28;45373;-62
2023/03/10 02:25:29;;;;;;;;;3.67;1.00;;;;;12.32;64.40;98463.75;5008515;28;45387;-62
2023/03/10 02:27:56;;;;;;;;;2.67;0.33;;;;;12.33;64.61;98460.13;5011909;28;45024;-63
2023/03/10 02:30:25;;;;;;;;;5.00;3.00;;;;;12.34;64.12;98461.91;4995378;28;45501;-63
2023/03/10 02:32:55;;;;;;;;;6.00;2.33;;;;;12.30;63.65;98443.25;5011429;28;45250;-62
2023/03/10 02:35:20;;;;;;;;;4.00;1.00;;;;;12.26;64.33;98439.75;4997415;28;46435;-62
2023/03/10 02:37:46;;;;;;;;;1.67;1.67;;;;;12.32;63.96;98453.03;4994417;28;45884;-63
2023/03/10 02:40:36;;;;;;;;;4.00;2.00;;;;;12.31;63.32;98461.97;5009561;28;44917;-62
2023/03/10 02:43:10;;;;;;;;;4.33;2.00;;;;;12.29;63.76;98453.09;5010628;28;45290;-63
2023/03/10 02:45:41;;;;;;;;;3.00;2.00;;;;;12.25;63.61;98455.84;5013559;28;45144;-63
2023/03/10 02:48:09;;;;;;;;;3.33;2.00;;;;;12.19;63.59;98440.75;5011358;28;45158;-62
2023/03/10 02:50:37;;;;;;;;;5.67;2.00;;;;;12.15;63.17;98433.69;5011874;28;44903;-62
2023/03/10 02:53:19;;;;;;;;;4.00;3.00;;;;;12.19;63.16;98431.84;5013494;28;45055;-62
2023/03/10 02:55:45;;;;;;;;;2.67;2.00;;;;;12.27;63.38;98437.94;5006862;28;45634;-62
2023/03/10 02:58:11;;;;;;;;;5.33;4.00;;;;;12.27;62.60;98437.94;4997572;28;45106;-63
2023/03/10 03:00:41;;;;;;;;;2.33;1.00;;;;;12.28;62.35;98427.22;4997842;28;45121;-63
2023/03/10 03:03:08;;;;;;;;;2.00;2.00;;;;;12.25;62.29;98427.25;5014679;28;45289;-63
2023/03/10 03:08:52;;;;;;;;;8.33;1.67;;;;;12.15;62.31;98410.47;4997331;28;45402;-62
2023/03/10 03:11:18;;;;;;;;;3.00;1.67;;;;;12.30;62.10;98429.88;5013435;28;45069;-63
2023/03/10 03:13:43;;;;;;;;;6.00;1.00;;;;;12.11;62.66;98407.88;5012675;28;45501;-61
2023/03/10 03:16:09;;;;;;;;;3.00;1.00;;;;;12.30;62.26;98430.72;5012277;28;45177;-62
2023/03/10 03:18:35;;;;;;;;;1.00;0.67;;;;;12.29;62.17;98426.31;5013181;28;45085;-63
2023/03/10 03:21:06;;;;;;;;;5.00;1.00;;;;;12.28;61.96;98421.84;5011941;28;44924;-62
2023/03/10 03:23:33;;;;;;;;;1.00;1.00;;;;;12.30;62.54;98422.69;5011451;28;45436;-63
2023/03/10 03:26:01;;;;;;;;;3.67;2.00;;;;;12.30;63.07;98417.34;5010844;28;46051;-62
2023/03/10 03:28:27;;;;;;;;;3.00;2.33;;;;;12.21;62.63;98409.50;5008675;28;44974;-63
2023/03/10 03:30:52;;;;;;;;;0.67;0.00;;;;;12.19;63.54;98423.81;5010893;28;45111;-62
2023/03/10 03:33:18;;;;;;;;;1.67;1.00;;;;;12.12;63.27;98423.91;5009850;28;45396;-61
2023/03/10 03:35:43;;;;;;;;;0.00;0.00;;;;;12.02;63.58;98422.31;4994116;28;57246;-62
2023/03/10 03:38:09;;;;;;;;;0.33;0.00;;;;;11.98;64.93;98424.16;5007214;28;45009;-62
2023/03/10 03:40:36;;;;;;;;;4.00;1.33;;;;;11.95;65.15;98432.22;5008270;28;44981;-63
2023/03/10 03:43:02;;;;;;;;;0.33;0.00;;;;;11.97;65.15;98435.75;5010865;28;45138;-62
2023/03/10 03:45:29;;;;;;;;;1.00;1.00;;;;;11.97;66.12;98437.56;5008623;28;45489;-64
2023/03/10 03:47:54;;;;;;;;;4.00;0.00;;;;;11.94;66.47;98443.84;5003309;28;45594;-63
2023/03/10 03:50:21;;;;;;;;;4.00;3.00;;;;;11.90;66.89;98442.09;4995743;28;45645;-62
2023/03/10 03:52:47;;;;;;;;;7.00;2.67;;;;;11.80;67.54;98429.78;4995623;28;45478;-62
2023/03/10 03:55:15;;;;;;;;;1.67;0.67;;;;;11.87;67.30;98447.50;4995159;28;45996;-62
2023/03/10 03:57:43;;;;;;;;;1.67;1.00;;;;;11.76;68.18;98426.28;4995018;28;45340;-63
2023/03/10 04:00:13;;;;;;;;;1.00;1.00;;;;;11.90;68.33;98438.56;4995316;28;45617;-63
2023/03/10 04:02:38;;;;;;;;;3.00;2.00;;;;;11.74;67.49;98409.34;4996360;28;45653;-61
2023/03/10 04:05:04;;;;;;;;;2.33;2.33;;;;;11.79;67.13;98426.19;4994591;28;45477;-62
2023/03/10 04:07:30;;;;;;;;;4.67;2.67;;;;;11.90;67.85;98442.09;4995486;28;45479;-62
2023/03/10 04:09:56;;;;;;;;;6.00;2.33;;;;;11.89;67.83;98434.09;4995819;28;45423;-64
2023/03/10 04:12:22;;;;;;;;;6.33;1.00;;;;;11.84;68.38;98426.13;4996354;28;45764;-62
2023/03/10 04:14:47;;;;;;;;;2.00;2.00;;;;;11.91;67.92;98440.31;4995747;28;46332;-64
2023/03/10 04:17:12;;;;;;;;;2.33;1.00;;;;;11.92;67.65;98444.78;4995416;28;50193;-63
2023/03/10 04:19:38;;;;;;;;;3.00;2.00;;;;;11.82;67.87;98427.97;4995254;28;45633;-62
2023/03/10 04:22:03;;;;;;;;;2.00;1.33;;;;;11.91;68.63;98433.22;4984043;28;45543;-62
2023/03/10 04:24:28;;;;;;;;;4.00;1.00;;;;;11.87;68.78;98447.50;4987774;28;46294;-62
2023/03/10 04:26:54;;;;;;;;;5.67;2.00;;;;;11.83;68.21;98435.09;4993974;28;45367;-64
2023/03/10 04:29:23;;;;;;;;;6.00;2.00;;;;;11.82;69.60;98436.00;4982814;28;45356;-63
2023/03/10 04:31:50;;;;;;;;;5.00;3.00;;;;;11.77;69.25;98433.38;4994678;28;45623;-62
2023/03/10 04:34:15;;;;;;;;;4.00;2.00;;;;;11.78;70.28;98435.16;4994082;28;46840;-62
2023/03/10 04:36:41;;;;;;;;;3.67;1.67;;;;;11.80;69.62;98433.34;4993166;28;45503;-62
2023/03/10 04:39:08;;;;;;;;;4.33;1.00;;;;;11.83;69.96;98431.50;4994318;28;45547;-62
2023/03/10 04:41:35;;;;;;;;;1.00;1.00;;;;;11.84;70.35;98433.28;4994619;28;45403;-62
2023/03/10 04:44:00;;;;;;;;;6.00;4.33;;;;;11.74;69.72;98421.84;4993903;28;46067;-62
2023/03/10 04:46:26;;;;;;;;;7.50;5.00;;;;;11.74;69.99;98433.44;4993781;28;45348;-62
2023/03/10 04:48:51;;;;;;;;;3.00;0.67;;;;;11.72;69.63;98429.91;4994467;28;45453;-63
2023/03/10 04:51:17;;;;;;;;;4.00;1.00;;;;;11.72;70.13;98421.00;4992913;28;45239;-62
2023/03/10 04:53:42;;;;;;;;;2.00;1.33;;;;;11.70;69.92;98422.81;4993701;28;45422;-62
2023/03/10 04:56:09;;;;;;;;;2.00;2.00;;;;;11.70;69.27;98450.44;4992195;28;45514;-63
2023/03/10 04:58:34;;;;;;;;;4.00;1.00;;;;;11.67;69.23;98441.59;4991364;28;45527;-61
2023/03/10 05:00:59;;;;;;;;;3.67;0.67;;;;;11.62;68.49;98439.84;4993431;28;45351;-61
2023/03/10 05:03:25;;;;;;;;;1.33;0.00;;;;;11.58;68.57;98432.78;4993203;28;45652;-61
2023/03/10 05:05:50;;;;;;;;;2.00;0.67;;;;;11.68;69.29;98446.00;4993244;28;45580;-62
2023/03/10 05:08:16;;;;;;;;;3.67;1.00;;;;;11.66;68.82;98450.50;4992194;28;45439;-62
2023/03/10 05:10:43;;;;;;;;;1.67;0.67;;;;;11.71;69.20;98451.31;4993109;28;45526;-63
2023/03/10 05:13:13;;;;;;;;;4.67;1.33;;;;;11.68;68.99;98454.03;4994142;28;46515;-63
2023/03/10 05:15:40;;;;;;;;;0.67;0.00;;;;;11.62;69.23;98453.22;4982236;28;45498;-62
2023/03/10 05:18:07;;;;;;;;;2.00;1.00;;;;;11.57;68.37;98451.53;4993952;28;45460;-61
2023/03/10 05:20:32;;;;;;;;;2.33;0.33;;;;;11.41;67.74;98435.69;4994064;28;45566;-62
2023/03/10 05:22:57;;;;;;;;;3.00;1.00;;;;;11.48;69.08;98443.63;4993284;28;45795;-61
2023/03/10 05:25:23;;;;;;;;;2.00;1.00;;;;;11.40;68.82;98435.72;4981971;28;45501;-62
2023/03/10 05:27:48;;;;;;;;;3.00;0.00;;;;;11.38;69.06;98443.78;4981890;28;45596;-62
2023/03/10 05:30:14;;;;;;;;;1.00;1.00;;;;;11.45;68.71;98452.59;4993421;28;45588;-63
2023/03/10 05:32:41;;;;;;;;;0.00;0.00;;;;;11.42;69.58;98449.97;4987630;28;46176;-62
2023/03/10 05:35:07;;;;;;;;;1.67;1.00;;;;;11.43;69.08;98468.66;4992940;28;45519;-62
2023/03/10 05:37:39;;;;;;;;;2.33;0.00;;;;;11.44;68.38;98464.19;4992973;28;45489;-62
2023/03/10 05:40:12;;;;;;;;;0.33;0.00;;;;;11.40;69.12;98478.50;4992783;28;45545;-61
2023/03/10 05:42:37;;;;;;;;;1.00;0.33;;;;;11.35;69.18;98450.94;4987977;28;46201;-62
2023/03/10 05:45:05;;;;;;;;;0.00;0.00;;;;;11.36;69.13;98463.41;4991889;28;45456;-61
2023/03/10 05:47:32;;;;;;;;;2.00;0.33;;;;;11.33;68.98;98466.13;4977315;28;45424;-62
2023/03/10 05:49:58;;;;;;;;;0.00;0.00;;;;;11.30;69.21;98468.84;4995076;28;45882;-62
2023/03/10 05:52:23;;;;;;;;;2.00;1.00;;;;;11.28;70.37;98470.66;4993917;28;45843;-63
2023/03/10 05:54:49;;;;;;;;;1.00;0.00;;;;;11.25;70.74;98463.53;4993943;28;51806;-61
2023/03/10 05:57:14;;;;;;;;;2.00;0.00;;;;;11.07;70.54;98440.66;4993286;28;45573;-61
2023/03/10 05:59:39;;;;;;;;;0.00;0.00;;;;;11.12;70.22;98448.56;4994869;28;45714;-63
2023/03/10 06:02:05;;;;;;;;;2.67;0.00;;;;;11.22;70.59;98458.28;4995279;28;46503;-62
2023/03/10 06:04:32;;;;;;;;;4.00;1.00;;;;;11.27;71.00;98466.19;4993338;28;45673;-61
2023/03/10 06:06:59;;;;;;;;;0.00;0.00;;;;;11.29;70.88;98469.75;4996470;28;45429;-62
2023/03/10 06:09:26;;;;;;;;;1.00;0.00;;;;;11.27;70.05;98480.47;4995959;28;45441;-62
2023/03/10 06:11:51;;;;;;;;;0.00;0.00;;;;;11.27;70.29;98485.81;4996004;28;45665;-63
2023/03/10 06:14:16;;;;;;;;;3.00;0.00;;;;;11.27;70.51;98485.81;4991724;28;62028;-62
2023/03/10 06:16:48;;;;;;;;;0.00;0.00;;;;;11.18;70.05;98473.44;4993465;28;45479;-62
2023/03/10 06:19:13;;;;;;;;;0.00;0.00;;;;;11.12;71.12;98459.25;4996814;28;45446;-61
2023/03/10 06:21:38;;;;;;;;;1.00;1.00;;;;;11.24;71.34;98496.53;4995782;28;51371;-63
2023/03/10 06:24:04;;;;;;;;;0.00;0.00;;;;;11.21;70.54;98492.09;4994188;28;46136;-62
2023/03/10 06:26:29;;;;;;;;;0.00;0.00;;;;;11.14;70.95;98494.91;4997168;28;45655;-61
2023/03/10 06:28:55;;;;;;;;;0.00;0.00;;;;;11.17;71.44;98489.47;4996208;28;45562;-63
2023/03/10 06:31:23;;;;;;;;;1.00;0.00;;;;;11.15;71.47;98510.91;4997889;28;45907;-62
2023/03/10 06:33:49;;;;;;;;;1.00;0.00;;;;;11.13;71.95;98514.50;4997862;28;45742;-62
2023/03/10 06:36:15;;;;;;;;;1.00;0.00;;;;;11.11;72.15;98530.53;4993116;28;45849;-61
2023/03/10 06:38:41;;;;;;;;;0.00;0.00;;;;;11.10;72.45;98528.75;4997780;28;45285;-63
2023/03/10 06:41:07;;;;;;;;;1.33;0.00;;;;;11.10;72.87;98527.88;4992597;28;46959;-61
2023/03/10 06:43:33;;;;;;;;;0.00;0.00;;;;;11.02;73.45;98519.94;4997441;28;45455;-62
2023/03/10 06:46:02;;;;;;;;;0.00;0.00;;;;;10.92;73.69;98516.50;4994764;28;45514;-63
2023/03/10 06:48:27;;;;;;;;;0.00;0.00;;;;;10.97;73.74;98532.47;4994250;28;45724;-65
2023/03/10 06:50:53;;;;;;;;;0.00;0.00;;;;;10.93;73.52;98531.63;4994733;28;66343;-63
2023/03/10 06:53:20;;;;;;;;;2.00;0.00;;;;;10.93;72.77;98530.75;4994713;28;45317;-61
2023/03/10 06:55:59;;;;;;;;;0.00;0.00;;;;;10.94;72.58;98545.88;4992967;28;45507;-63
2023/03/10 06:58:25;;;;;;;;;0.00;0.00;;;;;11.01;72.62;98547.59;4994580;28;45511;-61
2023/03/10 07:00:51;;;;;;;;;0.00;0.00;;;;;11.01;73.33;98556.47;4981437;28;47435;-62
2023/03/10 07:03:17;;;;;;;;;0.33;0.33;;;;;11.04;73.08;98569.81;4980432;28;45308;-66
2023/03/10 07:05:42;;;;;;;;;1.00;0.00;;;;;11.01;73.64;98569.84;4997921;28;45612;-63
2023/03/10 07:08:08;;;;;;;;;0.00;0.00;;;;;11.02;73.64;98570.72;4999860;28;45434;-62
2023/03/10 07:10:33;;;;;;;;;0.33;0.33;;;;;11.02;73.36;98581.41;4995056;28;46239;-62
2023/03/10 07:12:59;;;;;;;;;0.00;0.00;;;;;11.02;73.65;98602.78;4994718;28;45378;-62
2023/03/10 07:15:25;;;;;;;;;0.00;0.00;;;;;11.03;73.91;98596.53;4994173;28;45736;-62
2023/03/10 07:17:51;;;;;;;;;0.00;0.00;;;;;10.95;73.50;98604.63;4984734;28;45445;-62
2023/03/10 07:20:18;;;;;;;;;0.00;0.00;;;;;10.87;74.26;98604.72;4994774;28;46082;-62
2023/03/10 07:22:43;;;;;;;;;0.00;0.00;;;;;10.91;74.76;98626.06;4982254;28;45428;-63
2023/03/10 07:25:09;;;;;;;;;0.00;0.00;;;;;10.96;74.73;98627.78;4995977;28;45506;-62
2023/03/10 07:27:34;;;;;;;;;0.00;0.00;;;;;11.00;75.53;98639.31;4991308;28;45277;-62
2023/03/10 07:30:00;;;;;;;;;0.00;0.00;;;;;10.99;75.38;98641.13;4995406;28;46149;-61
2023/03/10 07:32:25;;;;;;;;;0.00;0.00;;;;;11.02;75.37;98653.56;4994977;28;45489;-62
2023/03/10 07:34:51;;;;;;;;;1.00;1.00;;;;;10.98;75.15;98647.34;4996038;28;45451;-61
2023/03/10 07:37:16;;;;;;;;;0.00;0.00;;;;;11.00;74.91;98663.38;4996358;28;45344;-62
2023/03/10 07:39:42;;;;;;;;;0.00;0.00;;;;;10.96;74.24;98661.66;4995138;28;46030;-61
2023/03/10 07:42:07;;;;;;;;;0.00;0.00;;;;;10.99;74.75;98650.94;4977985;28;45518;-65
2023/03/10 07:44:33;;;;;;;;;0.00;0.00;;;;;11.05;73.98;98685.59;4995226;28;45440;-63
2023/03/10 07:46:58;;;;;;;;;0.00;0.00;;;;;11.04;74.07;98697.19;4995596;28;45520;-65
2023/03/10 07:49:23;;;;;;;;;0.00;0.00;;;;;11.05;74.12;98714.97;4978666;28;47047;-64
2023/03/10 07:51:49;;;;;;;;;0.67;0.00;;;;;10.90;73.75;98696.41;4995252;28;45486;-64
2023/03/10 07:54:14;;;;;;;;;1.00;0.00;;;;;11.03;73.83;98730.16;4995146;28;45814;-64
2023/03/10 07:56:39;;;;;;;;;0.33;0.33;;;;;10.96;73.62;98720.44;4995775;28;45562;-64
2023/03/10 07:59:05;;;;;;;;;0.00;0.00;;;;;11.00;72.79;98738.19;4994653;28;50327;-64
2023/03/10 08:01:30;;;;;;;;;0.33;0.00;;;;;11.02;72.37;98742.63;4994999;28;45490;-63
2023/03/10 08:03:56;;;;;;;;;0.00;0.00;;;;;11.02;71.60;98757.75;4988932;28;45570;-63
2023/03/10 08:06:24;;;;;;;;;0.00;0.00;;;;;11.01;71.49;98769.38;4989431;28;46069;-65
2023/03/10 08:08:50;;;;;;;;;0.00;0.00;;;;;11.04;71.78;98774.69;4993296;28;46352;-65
2023/03/10 08:11:17;;;;;;;;;0.00;0.00;;;;;11.03;70.07;98781.81;4993505;28;45659;-65
2023/03/10 08:13:44;;;;;;;;;1.00;0.00;;;;;10.87;70.47;98775.69;4994570;28;45713;-64
2023/03/10 08:16:10;;;;;;;;;0.00;0.00;;;;;10.95;69.39;98790.78;4995862;28;45468;-65
2023/03/10 08:18:35;;;;;;;;;0.00;0.00;;;;;10.95;69.31;98794.31;4989014;28;46444;-64
2023/03/10 08:21:05;;;;;;;;;0.00;0.00;;;;;11.03;69.54;98815.66;4970989;28;45691;-65
2023/03/10 08:23:31;;;;;;;;;0.00;0.00;;;;;11.01;68.31;98813.00;4991657;28;47165;-64
2023/03/10 08:26:00;;;;;;;;;0.67;0.00;;;;;10.93;68.46;98821.97;4991347;28;45516;-64
2023/03/10 08:28:27;;;;;;;;;0.00;0.00;;;;;10.87;67.99;98834.47;4990021;28;45716;-64
2023/03/10 08:30:53;;;;;;;;;0.00;0.00;;;;;10.81;67.90;98842.50;4982591;28;45619;-64
2023/03/10 08:33:20;;;;;;;;;0.33;0.33;;;;;10.88;67.54;98856.72;4991261;28;45727;-63
2023/03/10 08:35:45;;;;;;;;;1.00;1.00;;;;;10.86;67.40;98863.88;4994548;28;45495;-62
2023/03/10 08:38:11;;;;;;;;;4.67;1.00;;;;;10.69;68.22;98858.59;4989569;28;46281;-64
2023/03/10 08:40:36;;;;;;;;;0.00;0.00;;;;;10.73;69.86;98881.72;4992279;28;46202;-64
2023/03/10 08:43:02;;;;;;;;;0.00;0.00;;;;;10.61;70.88;98879.09;4993254;28;46836;-63
2023/03/10 08:45:27;;;;;;;;;0.00;0.00;;;;;10.68;71.10;98903.09;4994604;28;45618;-63
2023/03/10 08:47:52;;;;;;;;;0.00;0.00;;;;;10.68;71.88;98889.75;4993885;28;46740;-62
2023/03/10 08:50:18;;;;;;;;;0.00;0.00;;;;;10.69;71.79;98917.34;4995796;28;45492;-63
2023/03/10 08:52:43;;;;;;;;;2.00;0.00;;;;;10.71;69.95;98918.25;4993954;28;45688;-65
2023/03/10 08:55:09;;;;;;;;;0.00;0.00;;;;;10.64;68.31;98914.72;4994176;28;45449;-65
2023/03/10 08:57:34;;;;;;;;;1.00;0.00;;;;;10.62;68.05;98904.91;4992957;28;46234;-64
2023/03/10 09:00:00;;;;;;;;;1.00;1.00;;;;;10.64;67.42;98917.38;4959442;28;45364;-65
2023/03/10 09:02:28;;;;;;;;;2.00;0.67;;;;;10.74;67.42;98922.66;4993678;28;45370;-64
2023/03/10 09:04:53;;;;;;;;;1.00;0.00;;;;;10.71;66.55;98926.25;4994867;28;45450;-64
2023/03/10 09:07:18;;;;;;;;;1.00;1.00;;;;;10.72;66.40;98949.38;4996215;28;46296;-63
2023/03/10 09:09:44;;;;;;;;;0.00;0.00;;;;;10.59;66.22;98942.31;4992101;28;57234;-64
2023/03/10 09:12:10;;;;;;;;;1.00;1.00;;;;;10.61;64.99;98960.13;5008189;28;45537;-63
2023/03/10 09:14:37;;;;;;;;;0.67;0.67;;;;;10.59;65.09;98969.00;4997442;28;45647;-64
2023/03/10 09:17:03;;;;;;;;;3.00;0.00;;;;;10.57;65.40;98962.78;4991025;28;45900;-62
2023/03/10 09:19:29;;;;;;;;;1.67;0.00;;;;;10.56;65.47;98993.03;4980303;28;45545;-64
2023/03/10 09:21:56;;;;;;;;;0.00;0.00;;;;;10.00;64.89;98910.38;4994719;28;45494;-63
2023/03/10 09:24:22;;;;;;;;;0.00;0.00;;;;;10.51;65.05;99009.97;4992428;28;45611;-63
2023/03/10 09:26:48;;;;;;;;;12.00;7.67;;;;;10.55;65.42;99018.00;4990259;28;49122;-64
2023/03/10 09:29:13;;;;;;;;;2.00;0.00;;;;;10.55;65.87;99040.22;4991235;28;45585;-63
2023/03/10 09:31:39;;;;;;;;;0.00;0.00;;;;;10.48;67.11;99044.69;4994144;28;45412;-65
2023/03/10 09:34:06;;;;;;;;;1.00;1.00;;;;;10.38;67.15;99050.94;4990471;28;45704;-62
2023/03/10 09:36:32;;;;;;;;;0.67;0.67;;;;;10.25;67.90;99051.78;4993653;28;47044;-63
2023/03/10 09:38:58;;;;;;;;;1.67;0.33;;;;;10.25;67.94;99091.81;4975528;28;45736;-63
2023/03/10 09:42:08;;;;;;;;;0.00;0.00;;;;;10.16;67.99;99098.03;5001067;28;45468;-64
2023/03/10 09:44:42;;;;;;;;;0.00;0.00;;;;;10.10;68.04;99101.59;4998699;28;45450;-62
2023/03/10 09:47:32;;;;;;;;;5.00;1.00;;;;;10.06;66.76;99094.44;4999133;28;45603;-63
2023/03/10 09:50:16;;;;;;;;;0.00;0.00;;;;;10.02;65.79;99116.69;4999112;28;45460;-65
2023/03/10 09:53:00;;;;;;;;;6.33;1.00;;;;;10.01;64.19;99119.34;4995580;28;45472;-64
2023/03/10 09:55:42;;;;;;;;;1.00;1.00;;;;;10.02;63.78;99118.47;4984623;28;45486;-64
2023/03/10 09:58:27;;;;;;;;;1.00;1.00;;;;;10.03;63.17;99129.16;4998534;28;47031;-63
2023/03/10 10:00:53;;;;;;;;;2.00;0.00;;;;;9.96;63.32;99130.91;4994056;28;45289;-64
2023/03/10 10:03:29;;;;;;;;;0.67;0.67;;;;;9.99;62.89;99159.38;5000235;28;45416;-64
2023/03/10 10:05:56;;;;;;;;;2.33;1.00;;;;;9.96;62.39;99154.00;4999162;28;45503;-62
2023/03/10 10:08:26;;;;;;;;;3.00;2.00;;;;;10.03;62.56;99174.50;4998452;28;46100;-62
2023/03/10 10:10:54;;;;;;;;;1.00;0.75;;;;;10.07;62.27;99175.41;4999894;28;45435;-63
2023/03/10 10:13:22;;;;;;;;;1.00;0.00;;;;;10.10;60.85;99203.00;4998929;28;45397;-65
2023/03/10 10:15:58;;;;;;;;;2.67;0.67;;;;;9.94;58.40;99172.69;4999171;28;45305;-62
2023/03/10 10:18:30;;;;;;;;;4.00;0.75;;;;;10.11;57.69;99211.88;4998649;28;46525;-64
2023/03/10 10:21:08;;;;;;;;;2.00;1.00;;;;;10.17;56.64;99200.34;4998125;28;45420;-62
2023/03/10 10:23:49;;;;;;;;;3.00;0.67;;;;;10.18;56.67;99208.34;4998449;28;46083;-64
2023/03/10 10:26:18;;;;;;;;;2.75;2.75;;;;;10.27;56.52;99242.19;4999001;28;45417;-61
2023/03/10 10:28:52;;;;;;;;;4.75;2.00;;;;;10.23;56.74;99235.94;4997683;28;45676;-63
2023/03/10 10:31:21;;;;;;;;;1.00;1.00;;;;;10.18;56.34;99245.72;4982749;28;45349;-64
2023/03/10 10:34:03;;;;;;;;;1.00;1.00;;;;;10.24;55.60;99248.38;4996208;28;45452;-62
2023/03/10 10:36:31;;;;;;;;;1.33;0.00;;;;;10.22;54.97;99265.31;4998187;28;45511;-62
2023/03/10 10:38:57;;;;;;;;;1.33;0.00;;;;;10.15;55.90;99265.28;4996583;28;46254;-63
2023/03/10 10:41:32;;;;;;;;;2.00;0.00;;;;;10.15;55.94;99265.28;4997006;28;45544;-62
2023/03/10 10:44:06;;;;;;;;;2.00;0.00;;;;;10.18;57.00;99271.50;4995497;28;45465;-60
2023/03/10 10:46:32;;;;;;;;;1.00;1.00;;;;;10.11;57.39;99262.56;4991295;28;45424;-64
2023/03/10 10:49:03;;;;;;;;;3.25;2.75;;;;;10.24;56.74;99268.84;4995233;28;46451;-62
2023/03/10 10:51:33;;;;;;;;;1.75;1.00;;;;;10.33;56.35;99261.81;4994541;28;45277;-64
2023/03/10 10:54:20;;;;;;;;;0.33;0.33;;;;;10.45;54.22;99287.66;4995668;28;45487;-67
2023/03/10 10:56:57;;;;;;;;;1.00;1.00;;;;;10.35;53.47;99301.88;4996011;28;45689;-64
2023/03/10 10:59:28;;;;;;;;;1.00;1.00;;;;;10.37;53.54;99299.19;4979142;28;46162;-66
2023/03/10 11:01:58;;;;;;;;;2.00;1.00;;;;;10.41;52.83;99314.34;4996885;28;45868;-66
2023/03/10 11:04:28;;;;;;;;;2.00;0.50;;;;;10.38;52.10;99317.91;4996347;28;45348;-67
2023/03/10 11:07:11;;;;;;;;;1.00;1.00;;;;;10.47;52.41;99317.03;4996361;28;45387;-67
2023/03/10 11:09:37;;;;;;;;;2.75;2.25;;;;;10.55;51.90;99327.75;4992035;28;47388;-68
2023/03/10 11:12:02;;;;;;;;;4.00;1.00;;;;;10.54;49.93;99344.66;4993594;28;45538;-66
2023/03/10 11:14:43;;;;;;;;;1.00;1.00;;;;;10.54;50.77;99347.31;4996116;28;45495;-65
2023/03/10 11:17:37;;;;;;;;;0.67;0.67;;;;;10.52;50.66;99349.97;4994608;28;45314;-65
2023/03/10 11:20:13;;;;;;;;;5.25;2.00;;;;;10.41;51.26;99349.94;4996735;28;45463;-64
2023/03/10 11:22:52;;;;;;;;;1.00;1.00;;;;;10.48;52.10;99373.13;4995926;28;45282;-64
2023/03/10 11:25:28;;;;;;;;;1.00;1.00;;;;;10.49;52.47;99387.34;4983758;28;45443;-64
2023/03/10 11:28:01;;;;;;;;;1.00;1.00;;;;;10.46;52.31;99382.91;4982079;28;45468;-65
2023/03/10 11:30:36;;;;;;;;;2.00;2.00;;;;;10.47;52.84;99379.31;4995770;28;46783;-63
2023/03/10 11:33:13;;;;;;;;;0.00;0.00;;;;;10.49;51.98;99387.34;4996075;28;45445;-66
2023/03/10 11:35:49;;;;;;;;;1.00;1.00;;;;;10.51;51.19;99390.94;4994913;28;45665;-64
2023/03/10 11:38:19;;;;;;;;;1.75;1.00;;;;;10.48;51.54;99391.81;4995104;28;45599;-64
2023/03/10 11:40:49;;;;;;;;;2.00;0.67;;;;;10.37;51.25;99389.97;4995231;28;45424;-64
2023/03/10 11:43:25;;;;;;;;;1.00;1.00;;;;;10.39;51.38;99396.19;4994703;28;45314;-68